Cosco England — VRML8 — position and weather

sailwx.info

Track history (hours):
 
Tides and Currents Weather Stations Pressure Air Temp Water Temp Dewpoint Dewpoint Depression Visibility Wind Speed Wind Dir Waves Ship Positions

Cosco England

Last reported at 2018-Jun-19 21:29 UTC. Time now 2018-Jun-19 21:53 UTC.
Position N 53°32' E 009°57'.

Length 366 m; draft 12 m.

Type: Ship (hazmat cat A). MMSI: 477652300.

Date/timePositionNaut miles runAvg speedWind from/ knotsBaromVisibWave heightAir tempDewpointWater temp
2018-Jun-19 21:29N 53°32' E 009°57'0 0.0
2018-Jun-19 20:59N 53°32' E 009°57'0 0.0
2018-Jun-19 20:29N 53°32' E 009°57'0 0.0
2018-Jun-19 19:59N 53°32' E 009°57'0 0.0
2018-Jun-19 19:29N 53°32' E 009°57'0 0.0
2018-Jun-19 18:59N 53°32' E 009°57'0 0.0
2018-Jun-19 18:29N 53°32' E 009°57'0 0.0
2018-Jun-19 17:59N 53°32' E 009°57'0 0.0
2018-Jun-19 17:29N 53°32' E 009°57'0 0.0
2018-Jun-19 16:59N 53°32' E 009°57'0 0.0
2018-Jun-19 16:29N 53°32' E 009°57'0 0.0
2018-Jun-19 15:59N 53°32' E 009°57'0 0.0
2018-Jun-19 15:29N 53°32' E 009°57'0 0.0
2018-Jun-19 14:59N 53°32' E 009°57'0 0.0
2018-Jun-19 14:29N 53°32' E 009°57'0 0.0
2018-Jun-19 13:59N 53°32' E 009°57'0 0.0
2018-Jun-19 13:15N 53°32' E 009°57'0 0.0
2018-Jun-19 13:00N 53°32' E 009°57'0 0.0
2018-Jun-19 12:30N 53°32' E 009°57'0 0.0
2018-Jun-19 12:00N 53°32' E 009°57'0 0.0
2018-Jun-19 11:30N 53°32' E 009°57'0 0.0
2018-Jun-19 11:00N 53°32' E 009°57'0 0.0
2018-Jun-19 10:30N 53°32' E 009°57'0 0.0
2018-Jun-19 10:00N 53°32' E 009°57'0 0.0
2018-Jun-19 09:30N 53°32' E 009°57'0 0.0
2018-Jun-19 09:00N 53°32' E 009°57'0 0.0
2018-Jun-19 08:30N 53°32' E 009°57'0 0.0
2018-Jun-19 08:00N 53°32' E 009°57'0 0.0
2018-Jun-19 07:30N 53°32' E 009°57'0 0.0
2018-Jun-19 07:00N 53°32' E 009°57'0 0.0
2018-Jun-19 06:30N 53°32' E 009°57'0 0.0
2018-Jun-19 06:00N 53°32' E 009°57'0 0.0
2018-Jun-19 05:30N 53°32' E 009°57'0 0.0
2018-Jun-19 05:00N 53°32' E 009°57'0 0.0
2018-Jun-19 04:30N 53°32' E 009°57'0 0.0
2018-Jun-19 04:00N 53°32' E 009°57'0 0.0
2018-Jun-19 03:30N 53°32' E 009°57'0 0.0
2018-Jun-19 03:00N 53°32' E 009°57'0 0.0
2018-Jun-19 02:30N 53°32' E 009°57'0 0.0
2018-Jun-19 02:00N 53°32' E 009°57'0 0.0
2018-Jun-19 01:30N 53°32' E 009°57'0 0.0
2018-Jun-19 01:00N 53°32' E 009°57'0 0.0
2018-Jun-19 00:30N 53°32' E 009°57'0 0.0
2018-Jun-19 00:00N 53°32' E 009°57'0 0.0
2018-Jun-18 23:30N 53°32' E 009°57'0 0.0
2018-Jun-18 23:00N 53°32' E 009°57'0 0.0
2018-Jun-18 22:30N 53°32' E 009°57'0 0.0
2018-Jun-18 22:00N 53°32' E 009°57'0 0.0
2018-Jun-18 21:30N 53°32' E 009°57'0 0.0
2018-Jun-18 21:00N 53°32' E 009°57'0 0.0
2018-Jun-18 20:30N 53°32' E 009°57'0 0.0
2018-Jun-18 20:00N 53°32' E 009°57'0 0.0
2018-Jun-18 19:30N 53°32' E 009°57'1 1.2
2018-Jun-18 19:00N 53°32' E 009°57'2 4.9
2018-Jun-18 18:30N 53°33' E 009°53'5 9.9
2018-Jun-18 18:00N 53°34' E 009°45'611.7
2018-Jun-18 17:30N 53°36' E 009°36'612.0
2018-Jun-18 17:00N 53°41' E 009°30'713.4
2018-Jun-18 16:30N 53°46' E 009°24'714.4
2018-Jun-18 16:00N 53°52' E 009°16'612.7
2018-Jun-18 15:30N 53°52' E 009°05'714.7
2018-Jun-18 15:01N 53°50' E 008°54'612.4
2018-Jun-18 14:30N 53°52' E 008°43'714.5
2018-Jun-18 14:00N 53°58' E 008°35'815.6
2018-Jun-18 13:30N 53°59' E 008°22'714.4
2018-Jun-18 13:00N 53°59' E 008°10'5 9.8
2018-Jun-18 12:30N 54°01' E 008°02'2 3.2
2018-Jun-18 12:01N 54°03' E 008°03'0 0.1
2018-Jun-18 11:24N 54°03' E 008°04'0 0.0
2018-Jun-18 10:54N 54°03' E 008°04'0 0.1
2018-Jun-18 10:27N 54°03' E 008°04'0 0.1
2018-Jun-18 10:00N 54°03' E 008°03'0 0.0
2018-Jun-18 09:30N 54°03' E 008°03'0 0.0
2018-Jun-18 08:48N 54°03' E 008°03'0 0.0
2018-Jun-18 08:30N 54°03' E 008°03'0 0.1
2018-Jun-18 08:00N 54°03' E 008°03'0 0.1
2018-Jun-18 07:12N 54°03' E 008°03'0 0.1
2018-Jun-18 07:00N 54°03' E 008°03'0 0.1
2018-Jun-18 06:27N 54°03' E 008°03'0 0.0
2018-Jun-18 06:01N 54°03' E 008°03'0 0.1
2018-Jun-18 05:30N 54°03' E 008°03'0 0.1
2018-Jun-18 04:24N 54°03' E 008°03'0 0.0
2018-Jun-18 04:00N 54°03' E 008°03'0 0.0
2018-Jun-18 03:15N 54°03' E 008°03'0 0.1
2018-Jun-18 03:00N 54°03' E 008°03'0 0.1
2018-Jun-18 02:27N 54°03' E 008°03'0 0.1
2018-Jun-18 02:00N 54°03' E 008°04'1 1.7
2018-Jun-18 01:30N 54°02' E 008°04'2 3.7
2018-Jun-18 00:53N 53°60' E 008°05'2 4.1
2018-Jun-18 00:29N 53°59' E 008°02'510.4
2018-Jun-18 00:00N 53°57' E 007°54'612.1
2018-Jun-17 23:30N 53°56' E 007°44'815.1
2018-Jun-17 22:59N 53°54' E 007°31'715.0
2018-Jun-17 22:30N 53°52' E 007°19'6514.0
2018-Jun-17 17:50N 53°36' E 005°32'612.6
2018-Jun-17 17:21N 53°34' E 005°23'412.5
2018-Jun-17 17:00N 53°33' E 005°16'612.4
2018-Jun-17 16:31N 53°31' E 005°06'612.2
2018-Jun-17 16:00N 53°28' E 004°57'612.2
2018-Jun-17 15:30N 53°25' E 004°48'611.8
2018-Jun-17 15:01N 53°21' E 004°40'612.3
2018-Jun-17 14:30N 53°16' E 004°35'612.4
2018-Jun-17 13:59N 53°10' E 004°30'612.4
2018-Jun-17 13:30N 53°05' E 004°26'612.4
2018-Jun-17 13:00N 52°59' E 004°21'612.4
2018-Jun-17 12:31N 52°54' E 004°16'713.0
2018-Jun-17 12:00N 52°48' E 004°10'713.0
2018-Jun-17 11:30N 52°43' E 004°05'712.9
2018-Jun-17 10:57N 52°37' E 003°57'612.8
2018-Jun-17 10:31N 52°33' E 003°51'612.9
2018-Jun-17 10:00N 52°29' E 003°42'612.1
2018-Jun-17 09:29N 52°23' E 003°39'612.3
2018-Jun-17 09:00N 52°18' E 003°36'612.4
2018-Jun-17 08:31N 52°12' E 003°32'612.6
2018-Jun-17 08:00N 52°07' E 003°27'612.0
2018-Jun-17 07:30N 52°01' E 003°24'612.4
2018-Jun-17 07:00N 51°55' E 003°23'612.6
2018-Jun-17 06:30N 51°49' E 003°18'611.8
2018-Jun-17 06:00N 51°44' E 003°14'815.4
2018-Jun-17 05:30N 51°37' E 003°10'1019.3
2018-Jun-17 05:00N 51°29' E 003°02'510.5
2018-Jun-17 04:29N 51°24' E 003°07'815.6
2018-Jun-17 04:00N 51°24' E 003°19'815.5
2018-Jun-17 03:30N 51°25' E 003°31'4 7.1
2018-Jun-17 03:00N 51°26' E 003°36'4 8.3
2018-Jun-17 02:31N 51°24' E 003°43'510.2
2018-Jun-17 02:01N 51°21' E 003°48'612.7
2018-Jun-17 01:30N 51°24' E 003°57'3 6.1
2018-Jun-17 01:01N 51°24' E 004°02'5 9.2
2018-Jun-17 00:31N 51°23' E 004°09'4 7.5
2018-Jun-17 00:00N 51°21' E 004°15'3 6.8
2018-Jun-16 23:30N 51°18' E 004°16'0 0.6
2018-Jun-16 22:59N 51°18' E 004°16'0 0.0
2018-Jun-16 22:29N 51°18' E 004°16'0 0.0
2018-Jun-16 21:59N 51°18' E 004°16'0 0.0
2018-Jun-16 21:29N 51°18' E 004°16'0 0.0
2018-Jun-16 20:59N 51°18' E 004°16'0 0.0
2018-Jun-16 20:29N 51°18' E 004°16'0 0.0
2018-Jun-16 19:59N 51°18' E 004°16'0 0.0
2018-Jun-16 19:29N 51°18' E 004°16'0 0.0
2018-Jun-16 18:59N 51°18' E 004°16'0 0.0
2018-Jun-16 18:29N 51°18' E 004°16'0 0.0
2018-Jun-16 17:59N 51°18' E 004°16'0 0.0
2018-Jun-16 17:29N 51°18' E 004°16'0 0.0
2018-Jun-16 16:59N 51°18' E 004°16'0 0.0
2018-Jun-16 16:29N 51°18' E 004°16'0 0.0
2018-Jun-16 09:51N 51°18' E 004°16'0 0.0
2018-Jun-16 09:30N 51°18' E 004°16'0 0.0
2018-Jun-16 09:00N 51°18' E 004°16'0 0.0
2018-Jun-16 08:30N 51°18' E 004°16'0 0.0
2018-Jun-16 08:00N 51°18' E 004°16'0 0.0
2018-Jun-16 07:30N 51°18' E 004°16'0 0.0
2018-Jun-16 07:00N 51°18' E 004°16'0 0.0
2018-Jun-16 06:30N 51°18' E 004°16'0 0.0
2018-Jun-16 06:00N 51°18' E 004°16'0 0.0
2018-Jun-16 05:30N 51°18' E 004°16'0 0.0
2018-Jun-16 05:00N 51°18' E 004°16'0 0.0
2018-Jun-16 04:30N 51°18' E 004°16'0 0.0
2018-Jun-16 04:00N 51°18' E 004°16'0 0.0
2018-Jun-16 03:27N 51°18' E 004°16'0 0.0
2018-Jun-16 03:00N 51°18' E 004°16'0 0.0
2018-Jun-16 02:30N 51°18' E 004°16'0 0.0
2018-Jun-16 02:00N 51°18' E 004°16'0 0.0
2018-Jun-16 01:30N 51°18' E 004°16'0 0.0
2018-Jun-16 01:00N 51°18' E 004°16'0 0.0
2018-Jun-16 00:30N 51°18' E 004°16'0 0.0
2018-Jun-16 00:00N 51°18' E 004°16'0 0.0
2018-Jun-15 23:30N 51°18' E 004°16'0 0.0
2018-Jun-15 23:00N 51°18' E 004°16'0 0.0
2018-Jun-15 22:30N 51°18' E 004°16'0 0.0
2018-Jun-15 22:00N 51°18' E 004°16'0 0.0
2018-Jun-15 21:30N 51°18' E 004°16'0 0.0
2018-Jun-15 21:00N 51°18' E 004°16'0 0.0
2018-Jun-15 20:30N 51°18' E 004°16'0 0.0
2018-Jun-15 20:00N 51°18' E 004°16'0 0.0
2018-Jun-15 19:30N 51°18' E 004°16'0 0.0
2018-Jun-15 19:00N 51°18' E 004°16'0 0.0
2018-Jun-15 18:30N 51°18' E 004°16'0 0.1
2018-Jun-15 18:00N 51°18' E 004°16'1 1.5
2018-Jun-15 17:30N 51°18' E 004°16'3 6.9
2018-Jun-15 17:00N 51°21' E 004°14'4 7.4
2018-Jun-15 16:30N 51°22' E 004°08'510.3
2018-Jun-15 16:00N 51°25' E 004°01'5 9.6
2018-Jun-15 15:30N 51°22' E 003°56'612.1
2018-Jun-15 15:01N 51°22' E 003°46'612.7
2018-Jun-15 14:30N 51°26' E 003°40'611.1
2018-Jun-15 14:01N 51°25' E 003°31'714.1
2018-Jun-15 13:30N 51°24' E 003°20'816.4
2018-Jun-15 13:00N 51°24' E 003°06'919.0
2018-Jun-15 12:31N 51°25' E 002°51'714.2
2018-Jun-15 12:00N 51°22' E 002°41'510.2
2018-Jun-15 11:30N 51°22' E 002°33'917.6
2018-Jun-15 11:01N 51°19' E 002°20'918.3
2018-Jun-15 10:30N 51°15' E 002°07'917.6
2018-Jun-15 10:00N 51°11' E 001°55'816.5
2018-Jun-15 09:30N 51°06' E 001°44'815.8
2018-Jun-15 09:00N 51°01' E 001°34'815.6
2018-Jun-15 08:30N 50°54' E 001°27'815.7
2018-Jun-15 08:00N 50°47' E 001°24'915.7
2018-Jun-15 07:27N 50°38' E 001°19'817.2
2018-Jun-15 07:00N 50°33' E 001°10'917.3
2018-Jun-15 06:30N 50°28' E 000°59'917.8
2018-Jun-15 06:00N 50°26' E 000°46'917.7
2018-Jun-15 05:30N 50°23' E 000°32'917.5
2018-Jun-15 05:00N 50°21' E 000°19'917.3
2018-Jun-15 04:30N 50°19' E 000°06'817.2
2018-Jun-15 04:00N 50°16' W 000°07'917.2
2018-Jun-15 03:28N 50°13' W 000°21'817.2
2018-Jun-15 03:01N 50°09' W 000°32'917.2
2018-Jun-15 02:30N 50°05' W 000°44'816.9
2018-Jun-15 02:00N 50°01' W 000°55'815.6
2018-Jun-15 01:30N 49°58' W 001°06'815.7
2018-Jun-15 01:00N 49°55' W 001°17'815.9
2018-Jun-15 00:30N 49°50' W 001°28'816.0
2018-Jun-15 00:00N 49°46' W 001°38'2913.3
2018-Jun-14 21:51N 49°53' W 002°21'617.7
2018-Jun-14 21:31N 49°52' W 002°30'917.4
2018-Jun-14 21:00N 49°50' W 002°43'917.5
2018-Jun-14 20:30N 49°47' W 002°56'917.8
2018-Jun-14 20:00N 49°43' W 003°08'1019.8
2018-Jun-14 19:29N 49°38' W 003°22'7720.2
2018-Jun-14 15:41N 48°59' W 005°04'420.2
2018-Jun-14 15:30N 48°58' W 005°09'1020.5
2018-Jun-14 15:00N 48°53' W 005°23'1219.8
2018-Jun-14 14:25N 48°46' W 005°37'1620.5
2018-Jun-14 13:38N 48°31' W 005°49'2919.8
2018-Jun-14 12:09N 48°06' W 006°09'419.1
2018-Jun-14 11:57N 48°02' W 006°12'2318.9
2018-Jun-14 10:43N 47°42' W 006°28'1018.1
2018-Jun-14 10:09N 47°32' W 006°35'51218.4
2018-Jun-13 06:17N 39°21' W 009°51'518.6
2018-Jun-13 06:00N 39°16' W 009°51'918.5
2018-Jun-13 05:31N 39°06' W 009°51'918.6
2018-Jun-13 05:00N 38°57' W 009°50'918.4
2018-Jun-13 04:30N 38°48' W 009°50'918.7
2018-Jun-13 04:00N 38°39' W 009°49'1019.0
2018-Jun-13 03:30N 38°29' W 009°46'918.9
2018-Jun-13 03:00N 38°20' W 009°44'918.1
2018-Jun-13 02:30N 38°11' W 009°43'1018.8
2018-Jun-13 02:00N 38°02' W 009°40'918.8
2018-Jun-13 01:30N 37°53' W 009°37'918.8
2018-Jun-13 01:00N 37°44' W 009°34'1418.8
2018-Jun-13 00:16N 37°30' W 009°30'7116.6
2018-Jun-12 20:00N 36°35' W 008°34'1318.5
2018-Jun-12 19:18N 36°31' W 008°19'618.5
2018-Jun-12 18:58N 36°29' W 008°12'13418.3
2018-Jun-12 11:39N 35°59' W 005°30'316.9
2018-Jun-12 11:31N 35°59' W 005°27'816.1
2018-Jun-12 11:01N 36°02' W 005°18'23418.1
2018-Jun-11 22:08N 36°36' W 000°31'2319.0
2018-Jun-11 20:56N 36°40' W 000°03'1018.9
2018-Jun-11 20:24N 36°41' E 000°10'719.1
2018-Jun-11 20:01N 36°42' E 000°19'1319.1
2018-Jun-11 19:21N 36°44' E 000°34'618.7
2018-Jun-11 19:00N 36°45' E 000°42'918.4
2018-Jun-11 18:30N 36°46' E 000°54'1018.4
2018-Jun-11 17:58N 36°47' E 001°06'818.4
2018-Jun-11 17:30N 36°49' E 001°16'918.1
2018-Jun-11 17:01N 36°50' E 001°27'1018.2
2018-Jun-11 16:27N 36°52' E 001°40'818.4
2018-Jun-11 16:00N 36°53' E 001°50'918.4
2018-Jun-11 15:30N 36°54' E 002°02'918.2
2018-Jun-11 15:00N 36°55' E 002°13'918.3
2018-Jun-11 14:31N 36°56' E 002°24'918.5
2018-Jun-11 14:01N 36°57' E 002°35'1019.1
2018-Jun-11 13:31N 36°59' E 002°47'1019.5
2018-Jun-11 13:00N 36°59' E 002°60'35418.9
2018-Jun-10 18:18N 37°38' E 010°22'619.7
2018-Jun-10 18:01N 37°36' E 010°29'1019.4
2018-Jun-10 17:30N 37°34' E 010°41'1019.9
2018-Jun-10 17:00N 37°31' E 010°54'1020.0
2018-Jun-10 16:31N 37°29' E 011°06'16719.6
2018-Jun-10 07:58N 36°32' E 014°22'919.5
2018-Jun-10 07:31N 36°29' E 014°33'1019.3
2018-Jun-10 07:00N 36°26' E 014°44'1019.2
2018-Jun-10 06:30N 36°23' E 014°56'1019.1
2018-Jun-10 05:57N 36°23' E 015°09'819.0
2018-Jun-10 05:30N 36°23' E 015°19'  
Track history (hours):
 
Tides and Currents Weather Stations Pressure Air Temp Water Temp Dewpoint Dewpoint Depression Visibility Wind Speed Wind Dir Waves Ship Positions

Cosco England

Last reported at 2018-Jun-19 21:29 UTC. Time now 2018-Jun-19 21:53 UTC.
Position N 53°32' E 009°57'.

Length 366 m; draft 12 m.

Type: Ship (hazmat cat A). MMSI: 477652300.

Date/timePositionNaut miles runAvg speedWind from/ knotsBaromVisibWave heightAir tempDewpointWater temp
2018-Jun-19 21:29N 53°32' E 009°57'0 0.0
2018-Jun-19 20:59N 53°32' E 009°57'0 0.0
2018-Jun-19 20:29N 53°32' E 009°57'0 0.0
2018-Jun-19 19:59N 53°32' E 009°57'0 0.0
2018-Jun-19 19:29N 53°32' E 009°57'0 0.0
2018-Jun-19 18:59N 53°32' E 009°57'0 0.0
2018-Jun-19 18:29N 53°32' E 009°57'0 0.0
2018-Jun-19 17:59N 53°32' E 009°57'0 0.0
2018-Jun-19 17:29N 53°32' E 009°57'0 0.0
2018-Jun-19 16:59N 53°32' E 009°57'0 0.0
2018-Jun-19 16:29N 53°32' E 009°57'0 0.0
2018-Jun-19 15:59N 53°32' E 009°57'0 0.0
2018-Jun-19 15:29N 53°32' E 009°57'0 0.0
2018-Jun-19 14:59N 53°32' E 009°57'0 0.0
2018-Jun-19 14:29N 53°32' E 009°57'0 0.0
2018-Jun-19 13:59N 53°32' E 009°57'0 0.0
2018-Jun-19 13:15N 53°32' E 009°57'0 0.0
2018-Jun-19 13:00N 53°32' E 009°57'0 0.0
2018-Jun-19 12:30N 53°32' E 009°57'0 0.0
2018-Jun-19 12:00N 53°32' E 009°57'0 0.0
2018-Jun-19 11:30N 53°32' E 009°57'0 0.0
2018-Jun-19 11:00N 53°32' E 009°57'0 0.0
2018-Jun-19 10:30N 53°32' E 009°57'0 0.0
2018-Jun-19 10:00N 53°32' E 009°57'0 0.0
2018-Jun-19 09:30N 53°32' E 009°57'0 0.0
2018-Jun-19 09:00N 53°32' E 009°57'0 0.0
2018-Jun-19 08:30N 53°32' E 009°57'0 0.0
2018-Jun-19 08:00N 53°32' E 009°57'0 0.0
2018-Jun-19 07:30N 53°32' E 009°57'0 0.0
2018-Jun-19 07:00N 53°32' E 009°57'0 0.0
2018-Jun-19 06:30N 53°32' E 009°57'0 0.0
2018-Jun-19 06:00N 53°32' E 009°57'0 0.0
2018-Jun-19 05:30N 53°32' E 009°57'0 0.0
2018-Jun-19 05:00N 53°32' E 009°57'0 0.0
2018-Jun-19 04:30N 53°32' E 009°57'0 0.0
2018-Jun-19 04:00N 53°32' E 009°57'0 0.0
2018-Jun-19 03:30N 53°32' E 009°57'0 0.0
2018-Jun-19 03:00N 53°32' E 009°57'0 0.0
2018-Jun-19 02:30N 53°32' E 009°57'0 0.0
2018-Jun-19 02:00N 53°32' E 009°57'0 0.0
2018-Jun-19 01:30N 53°32' E 009°57'0 0.0
2018-Jun-19 01:00N 53°32' E 009°57'0 0.0
2018-Jun-19 00:30N 53°32' E 009°57'0 0.0
2018-Jun-19 00:00N 53°32' E 009°57'0 0.0
2018-Jun-18 23:30N 53°32' E 009°57'0 0.0
2018-Jun-18 23:00N 53°32' E 009°57'0 0.0
2018-Jun-18 22:30N 53°32' E 009°57'0 0.0
2018-Jun-18 22:00N 53°32' E 009°57'0 0.0
2018-Jun-18 21:30N 53°32' E 009°57'0 0.0
2018-Jun-18 21:00N 53°32' E 009°57'0 0.0
2018-Jun-18 20:30N 53°32' E 009°57'0 0.0
2018-Jun-18 20:00N 53°32' E 009°57'0 0.0
2018-Jun-18 19:30N 53°32' E 009°57'1 1.2
2018-Jun-18 19:00N 53°32' E 009°57'2 4.9
2018-Jun-18 18:30N 53°33' E 009°53'5 9.9
2018-Jun-18 18:00N 53°34' E 009°45'611.7
2018-Jun-18 17:30N 53°36' E 009°36'612.0
2018-Jun-18 17:00N 53°41' E 009°30'713.4
2018-Jun-18 16:30N 53°46' E 009°24'714.4
2018-Jun-18 16:00N 53°52' E 009°16'612.7
2018-Jun-18 15:30N 53°52' E 009°05'714.7
2018-Jun-18 15:01N 53°50' E 008°54'612.4
2018-Jun-18 14:30N 53°52' E 008°43'714.5
2018-Jun-18 14:00N 53°58' E 008°35'815.6
2018-Jun-18 13:30N 53°59' E 008°22'714.4
2018-Jun-18 13:00N 53°59' E 008°10'5 9.8
2018-Jun-18 12:30N 54°01' E 008°02'2 3.2
2018-Jun-18 12:01N 54°03' E 008°03'0 0.1
2018-Jun-18 11:24N 54°03' E 008°04'0 0.0
2018-Jun-18 10:54N 54°03' E 008°04'0 0.1
2018-Jun-18 10:27N 54°03' E 008°04'0 0.1
2018-Jun-18 10:00N 54°03' E 008°03'0 0.0
2018-Jun-18 09:30N 54°03' E 008°03'0 0.0
2018-Jun-18 08:48N 54°03' E 008°03'0 0.0
2018-Jun-18 08:30N 54°03' E 008°03'0 0.1
2018-Jun-18 08:00N 54°03' E 008°03'0 0.1
2018-Jun-18 07:12N 54°03' E 008°03'0 0.1
2018-Jun-18 07:00N 54°03' E 008°03'0 0.1
2018-Jun-18 06:27N 54°03' E 008°03'0 0.0
2018-Jun-18 06:01N 54°03' E 008°03'0 0.1
2018-Jun-18 05:30N 54°03' E 008°03'0 0.1
2018-Jun-18 04:24N 54°03' E 008°03'0 0.0
2018-Jun-18 04:00N 54°03' E 008°03'0 0.0
2018-Jun-18 03:15N 54°03' E 008°03'0 0.1
2018-Jun-18 03:00N 54°03' E 008°03'0 0.1
2018-Jun-18 02:27N 54°03' E 008°03'0 0.1
2018-Jun-18 02:00N 54°03' E 008°04'1 1.7
2018-Jun-18 01:30N 54°02' E 008°04'2 3.7
2018-Jun-18 00:53N 53°60' E 008°05'2 4.1
2018-Jun-18 00:29N 53°59' E 008°02'510.4
2018-Jun-18 00:00N 53°57' E 007°54'612.1
2018-Jun-17 23:30N 53°56' E 007°44'815.1
2018-Jun-17 22:59N 53°54' E 007°31'715.0
2018-Jun-17 22:30N 53°52' E 007°19'6514.0
2018-Jun-17 17:50N 53°36' E 005°32'612.6
2018-Jun-17 17:21N 53°34' E 005°23'412.5
2018-Jun-17 17:00N 53°33' E 005°16'612.4
2018-Jun-17 16:31N 53°31' E 005°06'612.2
2018-Jun-17 16:00N 53°28' E 004°57'612.2
2018-Jun-17 15:30N 53°25' E 004°48'611.8
2018-Jun-17 15:01N 53°21' E 004°40'612.3
2018-Jun-17 14:30N 53°16' E 004°35'612.4
2018-Jun-17 13:59N 53°10' E 004°30'612.4
2018-Jun-17 13:30N 53°05' E 004°26'612.4
2018-Jun-17 13:00N 52°59' E 004°21'612.4
2018-Jun-17 12:31N 52°54' E 004°16'713.0
2018-Jun-17 12:00N 52°48' E 004°10'713.0
2018-Jun-17 11:30N 52°43' E 004°05'712.9
2018-Jun-17 10:57N 52°37' E 003°57'612.8
2018-Jun-17 10:31N 52°33' E 003°51'612.9
2018-Jun-17 10:00N 52°29' E 003°42'612.1
2018-Jun-17 09:29N 52°23' E 003°39'612.3
2018-Jun-17 09:00N 52°18' E 003°36'612.4
2018-Jun-17 08:31N 52°12' E 003°32'612.6
2018-Jun-17 08:00N 52°07' E 003°27'612.0
2018-Jun-17 07:30N 52°01' E 003°24'612.4
2018-Jun-17 07:00N 51°55' E 003°23'612.6
2018-Jun-17 06:30N 51°49' E 003°18'611.8
2018-Jun-17 06:00N 51°44' E 003°14'815.4
2018-Jun-17 05:30N 51°37' E 003°10'1019.3
2018-Jun-17 05:00N 51°29' E 003°02'510.5
2018-Jun-17 04:29N 51°24' E 003°07'815.6
2018-Jun-17 04:00N 51°24' E 003°19'815.5
2018-Jun-17 03:30N 51°25' E 003°31'4 7.1
2018-Jun-17 03:00N 51°26' E 003°36'4 8.3
2018-Jun-17 02:31N 51°24' E 003°43'510.2
2018-Jun-17 02:01N 51°21' E 003°48'612.7
2018-Jun-17 01:30N 51°24' E 003°57'3 6.1
2018-Jun-17 01:01N 51°24' E 004°02'5 9.2
2018-Jun-17 00:31N 51°23' E 004°09'4 7.5
2018-Jun-17 00:00N 51°21' E 004°15'3 6.8
2018-Jun-16 23:30N 51°18' E 004°16'0 0.6
2018-Jun-16 22:59N 51°18' E 004°16'0 0.0
2018-Jun-16 22:29N 51°18' E 004°16'0 0.0
2018-Jun-16 21:59N 51°18' E 004°16'0 0.0
2018-Jun-16 21:29N 51°18' E 004°16'0 0.0
2018-Jun-16 20:59N 51°18' E 004°16'0 0.0
2018-Jun-16 20:29N 51°18' E 004°16'0 0.0
2018-Jun-16 19:59N 51°18' E 004°16'0 0.0
2018-Jun-16 19:29N 51°18' E 004°16'0 0.0
2018-Jun-16 18:59N 51°18' E 004°16'0 0.0
2018-Jun-16 18:29N 51°18' E 004°16'0 0.0
2018-Jun-16 17:59N 51°18' E 004°16'0 0.0
2018-Jun-16 17:29N 51°18' E 004°16'0 0.0
2018-Jun-16 16:59N 51°18' E 004°16'0 0.0
2018-Jun-16 16:29N 51°18' E 004°16'0 0.0
2018-Jun-16 09:51N 51°18' E 004°16'0 0.0
2018-Jun-16 09:30N 51°18' E 004°16'0 0.0
2018-Jun-16 09:00N 51°18' E 004°16'0 0.0
2018-Jun-16 08:30N 51°18' E 004°16'0 0.0
2018-Jun-16 08:00N 51°18' E 004°16'0 0.0
2018-Jun-16 07:30N 51°18' E 004°16'0 0.0
2018-Jun-16 07:00N 51°18' E 004°16'0 0.0
2018-Jun-16 06:30N 51°18' E 004°16'0 0.0
2018-Jun-16 06:00N 51°18' E 004°16'0 0.0
2018-Jun-16 05:30N 51°18' E 004°16'0 0.0
2018-Jun-16 05:00N 51°18' E 004°16'0 0.0
2018-Jun-16 04:30N 51°18' E 004°16'0 0.0
2018-Jun-16 04:00N 51°18' E 004°16'0 0.0
2018-Jun-16 03:27N 51°18' E 004°16'0 0.0
2018-Jun-16 03:00N 51°18' E 004°16'0 0.0
2018-Jun-16 02:30N 51°18' E 004°16'0 0.0
2018-Jun-16 02:00N 51°18' E 004°16'0 0.0
2018-Jun-16 01:30N 51°18' E 004°16'0 0.0
2018-Jun-16 01:00N 51°18' E 004°16'0 0.0
2018-Jun-16 00:30N 51°18' E 004°16'0 0.0
2018-Jun-16 00:00N 51°18' E 004°16'0 0.0
2018-Jun-15 23:30N 51°18' E 004°16'0 0.0
2018-Jun-15 23:00N 51°18' E 004°16'0 0.0
2018-Jun-15 22:30N 51°18' E 004°16'0 0.0
2018-Jun-15 22:00N 51°18' E 004°16'0 0.0
2018-Jun-15 21:30N 51°18' E 004°16'0 0.0
2018-Jun-15 21:00N 51°18' E 004°16'0 0.0
2018-Jun-15 20:30N 51°18' E 004°16'0 0.0
2018-Jun-15 20:00N 51°18' E 004°16'0 0.0
2018-Jun-15 19:30N 51°18' E 004°16'0 0.0
2018-Jun-15 19:00N 51°18' E 004°16'0 0.0
2018-Jun-15 18:30N 51°18' E 004°16'0 0.1
2018-Jun-15 18:00N 51°18' E 004°16'1 1.5
2018-Jun-15 17:30N 51°18' E 004°16'3 6.9
2018-Jun-15 17:00N 51°21' E 004°14'4 7.4
2018-Jun-15 16:30N 51°22' E 004°08'510.3
2018-Jun-15 16:00N 51°25' E 004°01'5 9.6
2018-Jun-15 15:30N 51°22' E 003°56'612.1
2018-Jun-15 15:01N 51°22' E 003°46'612.7
2018-Jun-15 14:30N 51°26' E 003°40'611.1
2018-Jun-15 14:01N 51°25' E 003°31'714.1
2018-Jun-15 13:30N 51°24' E 003°20'816.4
2018-Jun-15 13:00N 51°24' E 003°06'919.0
2018-Jun-15 12:31N 51°25' E 002°51'714.2
2018-Jun-15 12:00N 51°22' E 002°41'510.2
2018-Jun-15 11:30N 51°22' E 002°33'917.6
2018-Jun-15 11:01N 51°19' E 002°20'918.3
2018-Jun-15 10:30N 51°15' E 002°07'917.6
2018-Jun-15 10:00N 51°11' E 001°55'816.5
2018-Jun-15 09:30N 51°06' E 001°44'815.8
2018-Jun-15 09:00N 51°01' E 001°34'815.6
2018-Jun-15 08:30N 50°54' E 001°27'815.7
2018-Jun-15 08:00N 50°47' E 001°24'915.7
2018-Jun-15 07:27N 50°38' E 001°19'817.2
2018-Jun-15 07:00N 50°33' E 001°10'917.3
2018-Jun-15 06:30N 50°28' E 000°59'917.8
2018-Jun-15 06:00N 50°26' E 000°46'917.7
2018-Jun-15 05:30N 50°23' E 000°32'917.5
2018-Jun-15 05:00N 50°21' E 000°19'917.3
2018-Jun-15 04:30N 50°19' E 000°06'817.2
2018-Jun-15 04:00N 50°16' W 000°07'917.2
2018-Jun-15 03:28N 50°13' W 000°21'817.2
2018-Jun-15 03:01N 50°09' W 000°32'917.2
2018-Jun-15 02:30N 50°05' W 000°44'816.9
2018-Jun-15 02:00N 50°01' W 000°55'815.6
2018-Jun-15 01:30N 49°58' W 001°06'815.7
2018-Jun-15 01:00N 49°55' W 001°17'815.9
2018-Jun-15 00:30N 49°50' W 001°28'816.0
2018-Jun-15 00:00N 49°46' W 001°38'2913.3
2018-Jun-14 21:51N 49°53' W 002°21'617.7
2018-Jun-14 21:31N 49°52' W 002°30'917.4
2018-Jun-14 21:00N 49°50' W 002°43'917.5
2018-Jun-14 20:30N 49°47' W 002°56'917.8
2018-Jun-14 20:00N 49°43' W 003°08'1019.8
2018-Jun-14 19:29N 49°38' W 003°22'7720.2
2018-Jun-14 15:41N 48°59' W 005°04'420.2
2018-Jun-14 15:30N 48°58' W 005°09'1020.5
2018-Jun-14 15:00N 48°53' W 005°23'1219.8
2018-Jun-14 14:25N 48°46' W 005°37'1620.5
2018-Jun-14 13:38N 48°31' W 005°49'2919.8
2018-Jun-14 12:09N 48°06' W 006°09'419.1
2018-Jun-14 11:57N 48°02' W 006°12'2318.9
2018-Jun-14 10:43N 47°42' W 006°28'1018.1
2018-Jun-14 10:09N 47°32' W 006°35'51218.4
2018-Jun-13 06:17N 39°21' W 009°51'518.6
2018-Jun-13 06:00N 39°16' W 009°51'918.5
2018-Jun-13 05:31N 39°06' W 009°51'918.6
2018-Jun-13 05:00N 38°57' W 009°50'918.4
2018-Jun-13 04:30N 38°48' W 009°50'918.7
2018-Jun-13 04:00N 38°39' W 009°49'1019.0
2018-Jun-13 03:30N 38°29' W 009°46'918.9
2018-Jun-13 03:00N 38°20' W 009°44'918.1
2018-Jun-13 02:30N 38°11' W 009°43'1018.8
2018-Jun-13 02:00N 38°02' W 009°40'918.8
2018-Jun-13 01:30N 37°53' W 009°37'918.8
2018-Jun-13 01:00N 37°44' W 009°34'1418.8
2018-Jun-13 00:16N 37°30' W 009°30'7116.6
2018-Jun-12 20:00N 36°35' W 008°34'1318.5
2018-Jun-12 19:18N 36°31' W 008°19'618.5
2018-Jun-12 18:58N 36°29' W 008°12'13418.3
2018-Jun-12 11:39N 35°59' W 005°30'316.9
2018-Jun-12 11:31N 35°59' W 005°27'816.1
2018-Jun-12 11:01N 36°02' W 005°18'23418.1
2018-Jun-11 22:08N 36°36' W 000°31'2319.0
2018-Jun-11 20:56N 36°40' W 000°03'1018.9
2018-Jun-11 20:24N 36°41' E 000°10'719.1
2018-Jun-11 20:01N 36°42' E 000°19'1319.1
2018-Jun-11 19:21N 36°44' E 000°34'618.7
2018-Jun-11 19:00N 36°45' E 000°42'918.4
2018-Jun-11 18:30N 36°46' E 000°54'1018.4
2018-Jun-11 17:58N 36°47' E 001°06'818.4
2018-Jun-11 17:30N 36°49' E 001°16'918.1
2018-Jun-11 17:01N 36°50' E 001°27'1018.2
2018-Jun-11 16:27N 36°52' E 001°40'818.4
2018-Jun-11 16:00N 36°53' E 001°50'918.4
2018-Jun-11 15:30N 36°54' E 002°02'918.2
2018-Jun-11 15:00N 36°55' E 002°13'918.3
2018-Jun-11 14:31N 36°56' E 002°24'918.5
2018-Jun-11 14:01N 36°57' E 002°35'1019.1
2018-Jun-11 13:31N 36°59' E 002°47'1019.5
2018-Jun-11 13:00N 36°59' E 002°60'35418.9
2018-Jun-10 18:18N 37°38' E 010°22'619.7
2018-Jun-10 18:01N 37°36' E 010°29'1019.4
2018-Jun-10 17:30N 37°34' E 010°41'1019.9
2018-Jun-10 17:00N 37°31' E 010°54'1020.0
2018-Jun-10 16:31N 37°29' E 011°06'16719.6
2018-Jun-10 07:58N 36°32' E 014°22'919.5
2018-Jun-10 07:31N 36°29' E 014°33'1019.3
2018-Jun-10 07:00N 36°26' E 014°44'1019.2
2018-Jun-10 06:30N 36°23' E 014°56'1019.1
2018-Jun-10 05:57N 36°23' E 015°09'819.0
2018-Jun-10 05:30N 36°23' E 015°19'  

Dump ship's entire track history